createdAt,value
2018-08-20T00:00:10.762Z,15.45
2018-08-20T00:01:47.991Z,14.60
2018-08-20T00:02:55.195Z,20.43
2018-08-20T00:04:02.864Z,18.25
2018-08-20T00:05:08.315Z,16.07
2018-08-20T00:06:12.833Z,14.43
2018-08-20T00:07:20.177Z,17.23
2018-08-20T00:08:35.471Z,17.75
2018-08-20T00:09:48.447Z,19.17
2018-08-20T00:11:03.881Z,26.30
2018-08-20T00:12:16.618Z,23.90
2018-08-20T00:13:25.753Z,22.67
2018-08-20T00:14:31.949Z,19.82
2018-08-20T00:15:39.427Z,19.17
2018-08-20T00:16:44.054Z,18.87
2018-08-20T00:17:53.081Z,21.07
2018-08-20T00:18:59.754Z,16.73
2018-08-20T00:20:06.289Z,16.93
2018-08-20T00:21:11.896Z,19.27
2018-08-20T00:22:18.081Z,14.28
2018-08-20T00:23:27.133Z,25.20
2018-08-20T00:24:38.051Z,16.80
2018-08-20T00:25:43.007Z,19.52
2018-08-20T00:26:55.294Z,18.67
2018-08-20T00:28:11.691Z,20.52
2018-08-20T00:29:19.814Z,15.53
2018-08-20T00:30:27.873Z,21.10
2018-08-20T00:31:38.041Z,16.48
2018-08-20T00:32:48.843Z,20.45
2018-08-20T00:33:53.356Z,19.27
2018-08-20T00:35:00.196Z,15.63
2018-08-20T00:36:06.736Z,19.67
2018-08-20T00:37:10.959Z,15.25
2018-08-20T00:38:15.933Z,18.62
2018-08-20T00:39:20.083Z,20.15
2018-08-20T00:40:24.681Z,18.12
2018-08-20T00:41:29.281Z,15.60
2018-08-20T00:42:33.514Z,17.15
2018-08-20T00:43:38.105Z,18.52
2018-08-20T00:44:42.208Z,18.40
2018-08-20T00:45:46.650Z,13.90
2018-08-20T00:46:51.296Z,17.05
2018-08-20T00:47:55.680Z,19.90
2018-08-20T00:49:00.342Z,18.55
2018-08-20T00:50:05.380Z,19.50
2018-08-20T00:51:14.217Z,15.93
2018-08-20T00:52:18.720Z,21.23
2018-08-20T00:53:24.508Z,18.10
2018-08-20T00:54:31.828Z,23.27
2018-08-20T00:55:36.401Z,15.38
2018-08-20T00:56:41.441Z,22.48
2018-08-20T00:59:09.417Z,15.85
2018-08-20T01:00:14.027Z,17.37
2018-08-20T01:01:19.867Z,19.32
2018-08-20T01:02:25.952Z,21.30
2018-08-20T01:03:30.958Z,19.35
2018-08-20T01:04:35.481Z,18.85
2018-08-20T01:05:41.467Z,18.48
2018-08-20T01:06:45.919Z,17.77
2018-08-20T01:07:51.745Z,19.05
2018-08-20T01:08:55.963Z,15.68
2018-08-20T01:10:03.508Z,18.52
2018-08-20T01:11:09.959Z,14.25
2018-08-20T01:12:14.841Z,19.80
2018-08-20T01:13:20.076Z,19.77
2018-08-20T01:14:24.306Z,28.45
2018-08-20T01:15:29.016Z,18.12
2018-08-20T01:16:33.307Z,23.07
2018-08-20T01:17:40.144Z,16.17
2018-08-20T01:18:44.667Z,19.45
2018-08-20T01:19:49.008Z,16.93
2018-08-20T01:20:53.604Z,18.95
2018-08-20T01:21:57.857Z,19.30
2018-08-20T01:23:02.355Z,19.17
2018-08-20T01:24:06.888Z,17.27
2018-08-20T01:25:11.310Z,15.40
2018-08-20T01:26:16.564Z,14.85
2018-08-20T01:27:27.126Z,21.48
2018-08-20T01:28:31.569Z,16.17
2018-08-20T01:29:36.210Z,15.50
2018-08-20T01:30:40.917Z,24.65
2018-08-20T01:31:45.409Z,15.30
2018-08-20T01:32:49.695Z,17.77
2018-08-20T01:33:54.281Z,15.40
2018-08-20T01:35:13.742Z,20.95
2018-08-20T01:36:18.088Z,18.10
2018-08-20T01:37:22.834Z,16.80
2018-08-20T01:38:27.487Z,16.62
2018-08-20T01:39:32.040Z,21.68
2018-08-20T01:40:36.679Z,18.00
2018-08-20T01:41:41.425Z,20.27
2018-08-20T01:42:46.475Z,21.73
2018-08-20T01:43:52.100Z,25.85
2018-08-20T01:44:57.320Z,17.07
2018-08-20T01:46:02.380Z,15.60
2018-08-20T01:47:06.609Z,20.32
2018-08-20T01:48:13.401Z,20.15
2018-08-20T01:49:17.627Z,19.67
2018-08-20T01:50:21.870Z,18.25
2018-08-20T01:51:26.477Z,22.98
2018-08-20T01:52:30.682Z,18.67
2018-08-20T01:53:35.222Z,21.62
2018-08-20T01:54:39.740Z,20.08
2018-08-20T01:55:44.563Z,19.15
2018-08-20T01:56:49.011Z,17.95
2018-08-20T01:57:53.675Z,21.52
2018-08-20T01:58:58.385Z,18.17
2018-08-20T02:00:02.973Z,20.43
2018-08-20T02:01:07.459Z,20.50
2018-08-20T02:02:11.999Z,17.45
2018-08-20T02:03:16.735Z,17.27
2018-08-20T02:04:20.919Z,22.40
2018-08-20T02:05:25.161Z,20.40
2018-08-20T02:06:29.903Z,19.20
2018-08-20T02:07:35.160Z,19.40
2018-08-20T02:08:39.425Z,18.67
2018-08-20T02:09:43.852Z,17.82
2018-08-20T02:10:48.401Z,16.97
2018-08-20T02:11:52.779Z,18.65
2018-08-20T02:12:57.616Z,19.60
2018-08-20T02:14:02.379Z,17.48
2018-08-20T02:15:07.002Z,16.73
2018-08-20T02:16:11.605Z,21.70
2018-08-20T02:17:16.060Z,19.60
2018-08-20T02:18:20.540Z,19.07
2018-08-20T02:19:25.193Z,16.50
2018-08-20T02:20:29.588Z,20.57
2018-08-20T02:21:33.901Z,20.92
2018-08-20T02:22:38.528Z,22.25
2018-08-20T02:23:43.200Z,18.32
2018-08-20T02:24:47.913Z,16.87
2018-08-20T02:25:52.375Z,20.02
2018-08-20T02:26:56.639Z,18.70
2018-08-20T02:28:00.857Z,19.05
2018-08-20T02:29:05.335Z,22.50
2018-08-20T02:30:09.818Z,19.57
2018-08-20T02:31:14.131Z,22.15
2018-08-20T02:32:19.009Z,22.85
2018-08-20T02:33:23.717Z,23.85
2018-08-20T02:34:28.417Z,22.30
2018-08-20T02:35:32.985Z,22.58
2018-08-20T02:36:37.650Z,25.15
2018-08-20T02:37:47.335Z,22.70
2018-08-20T02:38:52.218Z,21.42
2018-08-20T02:39:57.600Z,23.42
2018-08-20T02:41:03.510Z,30.05
2018-08-20T02:42:08.227Z,28.57
2018-08-20T02:43:12.779Z,32.38
2018-08-20T02:44:18.248Z,27.95
2018-08-20T02:45:23.842Z,25.43
2018-08-20T02:46:41.049Z,26.90
2018-08-20T02:47:47.009Z,25.65
2018-08-20T02:48:51.371Z,27.40
2018-08-20T02:49:57.206Z,27.10
2018-08-20T02:51:02.322Z,25.68
2018-08-20T02:52:07.600Z,25.88
2018-08-20T02:53:14.320Z,23.60
2018-08-20T02:54:18.756Z,32.93
2018-08-20T02:55:23.324Z,24.25
2018-08-20T02:56:27.684Z,24.85
2018-08-20T02:57:32.330Z,23.83
2018-08-20T02:58:36.789Z,21.10
2018-08-20T02:59:41.795Z,33.67
2018-08-20T03:00:46.457Z,22.60
2018-08-20T03:01:50.687Z,28.12
2018-08-20T03:02:58.331Z,31.33
2018-08-20T03:04:02.688Z,22.22
2018-08-20T03:05:08.192Z,29.55
2018-08-20T03:06:13.429Z,29.95
2018-08-20T03:07:17.699Z,33.18
2018-08-20T03:08:21.903Z,25.45
2018-08-20T03:09:26.093Z,25.77
2018-08-20T03:10:30.827Z,26.93
2018-08-20T03:11:35.352Z,20.85
2018-08-20T03:12:40.165Z,26.20
2018-08-20T03:13:44.479Z,22.40
2018-08-20T03:14:48.820Z,23.32
2018-08-20T03:15:53.102Z,36.15
2018-08-20T03:16:57.334Z,32.93
2018-08-20T03:18:01.985Z,25.50
2018-08-20T03:19:08.883Z,23.00
2018-08-20T03:20:13.203Z,27.37
2018-08-20T03:21:17.432Z,28.15
2018-08-20T03:22:21.639Z,23.85
2018-08-20T03:23:25.920Z,22.35
2018-08-20T03:24:30.403Z,22.75
2018-08-20T03:25:34.800Z,26.42
2018-08-20T03:26:39.327Z,23.00
2018-08-20T03:27:43.553Z,26.82
2018-08-20T03:28:47.892Z,27.48
2018-08-20T03:29:52.240Z,25.77
2018-08-20T03:30:57.278Z,22.95
2018-08-20T03:32:01.640Z,30.70
2018-08-20T03:33:06.216Z,24.07
2018-08-20T03:34:10.498Z,25.50
2018-08-20T03:35:14.729Z,23.12
2018-08-20T03:36:19.630Z,20.12
2018-08-20T03:37:24.086Z,24.35
2018-08-20T03:38:28.591Z,29.72
2018-08-20T03:39:33.239Z,25.97
2018-08-20T03:40:37.368Z,21.33
2018-08-20T03:41:41.883Z,18.25
2018-08-20T03:42:46.255Z,21.05
2018-08-20T03:43:50.661Z,21.25
2018-08-20T03:44:54.895Z,20.45
2018-08-20T03:45:59.492Z,20.80
2018-08-20T03:47:03.715Z,24.18
2018-08-20T03:48:08.056Z,22.20
2018-08-20T03:49:13.636Z,22.10
2018-08-20T03:50:18.547Z,24.87
2018-08-20T03:51:22.858Z,26.25
2018-08-20T03:52:27.206Z,18.07
2018-08-20T03:53:31.826Z,32.00
2018-08-20T03:54:36.244Z,25.23
2018-08-20T03:55:40.439Z,25.52
2018-08-20T03:58:41.553Z,25.77
2018-08-20T03:59:46.087Z,22.93
2018-08-20T04:00:51.052Z,17.12
2018-08-20T04:01:55.490Z,23.70
2018-08-20T04:02:59.902Z,20.85
2018-08-20T04:04:04.263Z,22.22
2018-08-20T04:05:08.904Z,26.73
2018-08-20T04:06:13.391Z,16.65
2018-08-20T04:07:17.626Z,27.58
2018-08-20T04:08:21.849Z,18.90
2018-08-20T04:09:26.199Z,22.90
2018-08-20T04:10:31.181Z,21.48
2018-08-20T04:11:35.689Z,28.00
2018-08-20T04:12:39.993Z,16.75
2018-08-20T04:13:44.788Z,15.98
2018-08-20T04:14:49.021Z,17.23
2018-08-20T04:15:53.365Z,13.72
2018-08-20T04:16:59.266Z,20.25
2018-08-20T04:18:03.497Z,16.97
2018-08-20T04:19:08.459Z,15.05
2018-08-20T04:20:12.673Z,15.28
2018-08-20T04:21:17.759Z,15.05
2018-08-20T04:22:21.950Z,22.02
2018-08-20T04:23:26.297Z,13.18
2018-08-20T04:24:30.544Z,12.35
2018-08-20T04:25:35.033Z,16.30
2018-08-20T04:26:39.350Z,17.52
2018-08-20T04:27:43.571Z,12.50
2018-08-20T04:28:47.922Z,14.23
2018-08-20T04:29:52.203Z,9.85
2018-08-20T04:30:56.619Z,12.23
2018-08-20T04:32:00.928Z,13.00
2018-08-20T04:33:05.230Z,17.98
2018-08-20T04:34:09.500Z,12.47
2018-08-20T04:35:13.820Z,13.15
2018-08-20T04:36:18.143Z,16.32
2018-08-20T04:37:22.519Z,15.80
2018-08-20T04:38:28.626Z,14.00
2018-08-20T04:39:33.122Z,11.65
2018-08-20T04:40:37.525Z,8.85
2018-08-20T04:41:42.655Z,11.63
2018-08-20T04:42:46.949Z,17.90
2018-08-20T04:43:51.182Z,14.05
2018-08-20T04:44:56.321Z,11.68
2018-08-20T04:46:03.268Z,15.45
2018-08-20T04:47:08.299Z,15.90
2018-08-20T04:48:12.807Z,16.85
2018-08-20T04:49:17.256Z,13.98
2018-08-20T04:50:21.905Z,13.72
2018-08-20T04:51:26.733Z,10.98
2018-08-20T04:52:30.909Z,12.53
2018-08-20T04:53:35.431Z,15.93
2018-08-20T04:54:39.860Z,12.20
2018-08-20T04:55:44.180Z,15.72
2018-08-20T04:56:49.590Z,18.85
2018-08-20T04:57:54.246Z,10.13
2018-08-20T04:58:58.737Z,14.30
2018-08-20T05:00:03.214Z,10.80
2018-08-20T05:01:08.788Z,12.88
2018-08-20T05:02:13.283Z,14.45
2018-08-20T05:03:19.387Z,13.10
2018-08-20T05:04:27.448Z,18.00
2018-08-20T05:05:32.326Z,14.25
2018-08-20T05:06:36.568Z,20.82
2018-08-20T05:07:41.000Z,17.73
2018-08-20T05:08:45.290Z,26.42
2018-08-20T05:09:49.573Z,11.38
2018-08-20T05:10:53.847Z,22.07
2018-08-20T05:11:58.623Z,15.00
2018-08-20T05:13:07.406Z,11.80
2018-08-20T05:14:11.708Z,12.10
2018-08-20T05:15:16.781Z,14.15
2018-08-20T05:16:21.005Z,13.60
2018-08-20T05:17:25.411Z,15.38
2018-08-20T05:18:29.872Z,12.00
2018-08-20T05:19:36.802Z,20.55
2018-08-20T05:20:42.148Z,14.87
2018-08-20T05:21:47.960Z,13.20
2018-08-20T05:22:54.216Z,13.13
2018-08-20T05:24:01.612Z,9.20
2018-08-20T05:25:07.891Z,14.25
2018-08-20T05:26:12.573Z,8.90
2018-08-20T05:27:17.047Z,11.48
2018-08-20T05:28:21.553Z,11.60
2018-08-20T05:29:25.842Z,12.90
2018-08-20T05:30:30.252Z,10.15
2018-08-20T05:31:34.764Z,15.18
2018-08-20T05:32:39.177Z,12.15
2018-08-20T05:33:43.518Z,15.05
2018-08-20T05:34:48.179Z,12.15
2018-08-20T05:35:52.489Z,14.47
2018-08-20T05:36:56.823Z,12.05
2018-08-20T05:38:02.189Z,12.23
2018-08-20T05:39:08.675Z,12.78
2018-08-20T05:40:13.420Z,10.40
2018-08-20T05:41:17.674Z,11.97
2018-08-20T05:42:22.051Z,18.23
2018-08-20T05:43:26.335Z,11.08
2018-08-20T05:44:30.605Z,20.48
2018-08-20T05:45:34.888Z,10.18
2018-08-20T05:46:39.843Z,11.25
2018-08-20T05:47:44.177Z,9.30
2018-08-20T05:48:48.324Z,14.25
2018-08-20T05:49:52.596Z,9.45
2018-08-20T05:50:56.840Z,17.05
2018-08-20T05:52:01.208Z,8.63
2018-08-20T05:53:07.179Z,14.18
2018-08-20T05:54:29.649Z,12.03
2018-08-20T05:55:34.352Z,15.55
2018-08-20T05:56:39.033Z,11.10
2018-08-20T05:57:44.410Z,11.53
2018-08-20T05:58:49.230Z,13.30
2018-08-20T05:59:53.723Z,11.63
2018-08-20T06:01:00.452Z,15.28
2018-08-20T06:02:06.029Z,13.60
2018-08-20T06:03:10.798Z,12.58
2018-08-20T06:04:15.355Z,11.60
2018-08-20T06:05:20.046Z,15.25
2018-08-20T06:06:24.372Z,7.42
2018-08-20T06:07:30.649Z,10.65
2018-08-20T06:08:35.676Z,14.25
2018-08-20T06:09:40.412Z,12.03
2018-08-20T06:10:44.692Z,14.75
2018-08-20T06:11:48.996Z,9.75
2018-08-20T06:12:53.585Z,12.47
2018-08-20T06:13:57.888Z,15.93
2018-08-20T06:15:02.211Z,18.05
2018-08-20T06:16:06.860Z,13.95
2018-08-20T06:17:11.477Z,9.75
2018-08-20T06:18:15.961Z,10.50
2018-08-20T06:19:20.298Z,13.08
2018-08-20T06:20:25.579Z,13.22
2018-08-20T06:21:30.046Z,14.90
2018-08-20T06:22:34.363Z,12.18
2018-08-20T06:23:39.761Z,12.00
2018-08-20T06:24:44.345Z,10.35
2018-08-20T06:25:48.696Z,12.15
2018-08-20T06:26:53.011Z,12.20
2018-08-20T06:27:57.339Z,15.15
2018-08-20T06:29:02.025Z,10.75
2018-08-20T06:30:08.700Z,12.73
2018-08-20T06:31:15.893Z,15.80
2018-08-20T06:32:20.344Z,19.25
2018-08-20T06:33:29.872Z,12.37
2018-08-20T06:34:45.233Z,11.40
2018-08-20T06:35:49.642Z,15.15
2018-08-20T06:36:55.391Z,13.32
2018-08-20T06:37:59.911Z,12.55
2018-08-20T06:39:05.686Z,13.78
2018-08-20T06:40:13.272Z,11.73
2018-08-20T06:43:24.970Z,11.38
2018-08-20T06:44:29.235Z,14.25
2018-08-20T06:45:33.594Z,14.85
2018-08-20T06:46:39.195Z,14.15
2018-08-20T06:47:46.377Z,15.03
2018-08-20T06:48:51.099Z,14.23
2018-08-20T06:49:55.575Z,11.63
2018-08-20T06:51:00.213Z,15.25
2018-08-20T06:52:05.423Z,18.17
2018-08-20T06:53:09.763Z,11.43
2018-08-20T06:54:14.044Z,11.70
2018-08-20T06:55:19.538Z,18.45
2018-08-20T06:56:30.031Z,14.23
2018-08-20T06:57:35.930Z,12.00
2018-08-20T06:58:40.430Z,13.40
2018-08-20T06:59:47.459Z,13.43
2018-08-20T07:00:57.043Z,20.82
2018-08-20T07:02:04.635Z,16.27
2018-08-20T07:03:09.474Z,14.58
2018-08-20T07:04:14.348Z,15.78
2018-08-20T07:05:23.558Z,20.90
2018-08-20T07:06:29.687Z,12.95
2018-08-20T07:07:34.443Z,12.30
2018-08-20T07:08:38.730Z,11.70
2018-08-20T07:09:43.708Z,13.70
2018-08-20T07:10:48.963Z,14.75
2018-08-20T07:12:02.309Z,18.45
2018-08-20T07:13:19.382Z,12.07
2018-08-20T07:14:27.632Z,17.15
2018-08-20T07:15:32.512Z,12.00
2018-08-20T07:16:38.656Z,12.43
2018-08-20T07:17:42.902Z,13.30
2018-08-20T07:18:47.655Z,13.45
2018-08-20T07:19:51.999Z,16.30
2018-08-20T07:20:57.782Z,10.23
2018-08-20T07:22:02.879Z,11.65
2018-08-20T07:23:08.327Z,31.68
2018-08-20T07:24:13.981Z,15.38
2018-08-20T07:25:19.252Z,12.15
2018-08-20T07:26:24.147Z,12.07
2018-08-20T07:27:32.232Z,20.90
2018-08-20T07:28:38.284Z,15.65
2018-08-20T07:29:44.834Z,12.10
2018-08-20T07:30:50.838Z,11.38
2018-08-20T07:31:57.419Z,11.25
2018-08-20T07:33:06.667Z,11.65
2018-08-20T07:34:16.222Z,12.68
2018-08-20T07:35:21.665Z,26.17
2018-08-20T07:36:30.691Z,14.18
2018-08-20T07:37:35.535Z,14.10
2018-08-20T07:38:39.983Z,12.37
2018-08-20T07:39:45.766Z,11.80
2018-08-20T07:40:52.904Z,14.95
2018-08-20T07:41:57.625Z,12.10
2018-08-20T07:43:02.618Z,15.08
2018-08-20T07:44:07.157Z,12.33
2018-08-20T07:45:12.368Z,12.78
2018-08-20T07:46:17.611Z,15.10
2018-08-20T07:47:22.394Z,15.13
2018-08-20T07:48:27.199Z,11.48
2018-08-20T07:49:34.099Z,13.45
2018-08-20T07:51:54.186Z,12.33
2018-08-20T07:53:01.340Z,11.70
2018-08-20T07:54:06.617Z,12.23
2018-08-20T07:55:11.159Z,15.65
2018-08-20T07:56:15.635Z,16.77
2018-08-20T07:57:20.387Z,10.45
2018-08-20T07:58:25.262Z,16.30
2018-08-20T07:59:30.101Z,13.15
2018-08-20T08:00:34.332Z,13.40
2018-08-20T08:01:46.006Z,19.87
2018-08-20T08:02:51.280Z,12.15
2018-08-20T08:03:57.399Z,16.57
2018-08-20T08:05:01.997Z,14.10
2018-08-20T08:06:07.145Z,15.38
2018-08-20T08:07:11.536Z,14.28
2018-08-20T08:08:16.853Z,20.95
2018-08-20T08:09:22.683Z,12.80
2018-08-20T08:10:31.803Z,15.83
2018-08-20T08:11:41.222Z,9.93
2018-08-20T08:12:46.450Z,10.58
2018-08-20T08:13:50.965Z,10.03
2018-08-20T08:14:55.536Z,16.12
2018-08-20T08:16:01.184Z,12.53
2018-08-20T08:17:06.096Z,15.15
2018-08-20T08:18:10.689Z,12.98
2018-08-20T08:19:15.293Z,16.40
2018-08-20T08:20:19.783Z,13.48
2018-08-20T08:21:24.425Z,14.68
2018-08-20T08:22:29.309Z,13.70
2018-08-20T08:23:34.244Z,13.60
2018-08-20T08:24:39.199Z,14.70
2018-08-20T08:25:43.477Z,11.50
2018-08-20T08:26:49.264Z,13.75
2018-08-20T08:27:54.112Z,12.78
2018-08-20T08:28:58.670Z,15.93
2018-08-20T08:30:04.081Z,17.02
2018-08-20T08:31:09.288Z,16.00
2018-08-20T08:32:19.819Z,14.80
2018-08-20T08:33:26.661Z,17.87
2018-08-20T08:34:32.450Z,17.15
2018-08-20T08:35:40.295Z,16.42
2018-08-20T08:36:49.546Z,13.10
2018-08-20T08:38:03.027Z,12.25
2018-08-20T08:39:12.380Z,16.32
2018-08-20T08:40:19.391Z,18.85
2018-08-20T08:41:26.363Z,11.57
2018-08-20T08:45:55.045Z,16.20
2018-08-20T08:47:00.128Z,14.50
2018-08-20T08:48:05.339Z,12.23
2018-08-20T08:49:12.082Z,15.40
2018-08-20T08:50:18.778Z,17.40
2018-08-20T08:51:23.165Z,17.30
2018-08-20T08:52:31.701Z,16.87
2018-08-20T08:53:36.451Z,16.67
2018-08-20T08:54:41.720Z,16.25
2018-08-20T08:55:51.369Z,19.48
2018-08-20T08:57:00.454Z,14.90
2018-08-20T08:58:11.097Z,19.50
2018-08-20T08:59:16.928Z,16.15
2018-08-20T09:00:22.409Z,15.72
2018-08-20T09:01:27.576Z,16.05
2018-08-20T09:02:34.123Z,19.57
2018-08-20T09:03:42.219Z,18.60
2018-08-20T09:04:49.602Z,16.07
2018-08-20T09:05:55.381Z,18.52
2018-08-20T09:07:07.331Z,22.93
2018-08-20T09:08:16.277Z,18.30
2018-08-20T09:09:23.687Z,28.95
2018-08-20T09:10:32.300Z,19.92
2018-08-20T09:11:41.914Z,20.15
2018-08-20T09:12:51.154Z,23.77
2018-08-20T09:14:02.974Z,18.32
2018-08-20T09:15:15.711Z,16.65
2018-08-20T09:16:21.361Z,18.25
2018-08-20T09:17:28.018Z,24.05
2018-08-20T09:18:33.218Z,20.90
2018-08-20T09:19:39.279Z,21.50
2018-08-20T09:20:54.793Z,25.37
2018-08-20T09:22:01.616Z,16.73
2018-08-20T09:23:07.550Z,19.40
2018-08-20T09:24:28.367Z,18.00
2018-08-20T09:25:33.188Z,16.52
2018-08-20T09:26:38.031Z,17.82
2018-08-20T09:27:43.424Z,19.32
2018-08-20T09:28:52.435Z,19.35
2018-08-20T09:29:56.925Z,17.80
2018-08-20T09:31:03.223Z,21.23
2018-08-20T09:32:08.331Z,18.77
2018-08-20T09:33:12.788Z,18.52
2018-08-20T09:34:18.124Z,21.33
2018-08-20T09:35:22.977Z,31.12
2018-08-20T09:36:28.214Z,20.57
2018-08-20T09:37:37.796Z,21.55
2018-08-20T09:38:42.409Z,22.35
2018-08-20T09:39:52.568Z,21.93
2018-08-20T09:40:58.724Z,23.05
2018-08-20T09:42:07.673Z,22.87
2018-08-20T09:43:12.557Z,23.20
2018-08-20T09:44:18.392Z,19.90
2018-08-20T09:45:37.757Z,27.27
2018-08-20T09:46:48.083Z,27.48
2018-08-20T09:47:56.266Z,25.45
2018-08-20T09:49:02.516Z,26.42
2018-08-20T09:50:11.109Z,27.73
2018-08-20T09:51:16.364Z,23.38
2018-08-20T09:52:23.564Z,28.77
2018-08-20T09:53:29.236Z,28.42
2018-08-20T09:54:34.101Z,28.40
2018-08-20T09:55:51.897Z,29.18
2018-08-20T09:57:03.674Z,30.12
2018-08-20T09:58:09.833Z,25.92
2018-08-20T09:59:15.910Z,28.02
2018-08-20T10:02:28.091Z,32.67
2018-08-20T10:03:50.081Z,26.37
2018-08-20T10:05:00.112Z,29.20
2018-08-20T10:07:47.681Z,42.13
2018-08-20T10:09:01.766Z,26.82
2018-08-20T10:10:14.790Z,27.32
2018-08-20T10:11:24.274Z,38.08
2018-08-20T10:14:20.488Z,24.70
2018-08-20T10:15:28.243Z,24.07
2018-08-20T10:16:34.213Z,29.12
2018-08-20T10:18:19.473Z,30.02
2018-08-20T10:19:57.226Z,31.00
2018-08-20T10:23:15.467Z,24.18
2018-08-20T10:24:34.042Z,25.02
2018-08-20T10:26:11.029Z,24.57
2018-08-20T10:27:29.601Z,24.30
2018-08-20T10:28:36.302Z,22.95
2018-08-20T10:29:45.545Z,27.02
2018-08-20T10:30:51.057Z,21.05
2018-08-20T10:31:59.703Z,24.12
2018-08-20T10:33:08.459Z,24.43
2018-08-20T10:34:16.787Z,23.42
2018-08-20T10:35:29.110Z,22.65
2018-08-20T10:36:49.277Z,19.02
2018-08-20T10:37:54.816Z,18.95
2018-08-20T10:39:06.974Z,17.05
2018-08-20T10:40:38.995Z,22.70
2018-08-20T10:41:52.810Z,19.30
2018-08-20T10:43:05.196Z,17.27
2018-08-20T10:44:21.264Z,18.40
2018-08-20T10:45:34.625Z,16.17
2018-08-20T10:46:42.146Z,15.75
2018-08-20T10:48:10.600Z,21.93
2018-08-20T10:49:34.556Z,15.38
2018-08-20T10:52:52.557Z,17.70
2018-08-20T10:53:59.568Z,17.00
2018-08-20T10:55:23.039Z,19.98
2018-08-20T11:00:31.796Z,22.60
2018-08-20T11:01:43.528Z,18.92
2018-08-20T11:02:50.656Z,23.07
2018-08-20T11:04:21.705Z,21.00
2018-08-20T11:06:22.333Z,23.47
2018-08-20T11:07:56.846Z,25.60
2018-08-20T11:09:08.230Z,27.00
2018-08-20T11:10:56.549Z,29.55
2018-08-20T11:12:07.178Z,28.38
2018-08-20T11:15:21.708Z,28.65
2018-08-20T11:19:30.570Z,25.17
2018-08-20T11:22:31.297Z,26.40
2018-08-20T11:24:08.537Z,29.30
2018-08-20T11:25:36.397Z,26.15
2018-08-20T11:27:11.015Z,31.37
2018-08-20T11:28:17.848Z,30.48
2018-08-20T11:29:35.480Z,24.75
2018-08-20T11:30:41.741Z,30.95
2018-08-20T11:32:18.424Z,25.02
2018-08-20T11:42:24.445Z,29.60
2018-08-20T11:44:02.350Z,33.48
2018-08-20T11:47:03.784Z,28.10
2018-08-20T11:48:11.399Z,27.22
2018-08-20T11:49:45.507Z,32.42
2018-08-20T11:50:52.377Z,28.57
2018-08-20T11:51:59.763Z,25.82
2018-08-20T11:53:08.463Z,26.15
2018-08-20T11:54:16.441Z,29.60
2018-08-20T11:55:26.201Z,30.48
2018-08-20T12:01:56.539Z,30.70
2018-08-20T12:03:05.168Z,31.70
2018-08-20T12:04:21.229Z,28.47
2018-08-20T12:05:26.365Z,28.02
2018-08-20T12:06:31.119Z,26.35
2018-08-20T12:07:36.519Z,28.60
2018-08-20T12:08:45.122Z,28.10
2018-08-20T12:10:19.425Z,27.95
2018-08-20T12:11:27.825Z,28.75
2018-08-20T12:12:48.536Z,28.98
2018-08-20T12:14:03.095Z,26.62
2018-08-20T12:15:10.404Z,24.10
2018-08-20T12:16:28.823Z,31.55
2018-08-20T12:17:50.389Z,28.83
2018-08-20T12:19:55.898Z,32.53
2018-08-20T12:21:44.422Z,31.85
2018-08-20T12:23:13.712Z,26.23
2018-08-20T12:28:20.776Z,30.23
2018-08-20T12:29:30.187Z,28.30
2018-08-20T12:30:34.791Z,27.67
2018-08-20T12:31:45.087Z,29.63
2018-08-20T12:32:51.537Z,33.98
2018-08-20T12:33:56.713Z,27.93
2018-08-20T12:35:06.098Z,28.70
2018-08-20T12:36:16.098Z,28.20
2018-08-20T12:37:28.245Z,32.05
2018-08-20T12:38:33.816Z,32.63
2018-08-20T12:39:38.861Z,27.17
2018-08-20T12:40:44.232Z,32.60
2018-08-20T12:41:51.773Z,25.92
2018-08-20T12:42:56.536Z,30.17
2018-08-20T12:44:22.105Z,26.80
2018-08-20T12:45:51.438Z,29.12
2018-08-20T12:47:04.809Z,21.48
2018-08-20T12:48:13.096Z,24.02
2018-08-20T12:49:24.414Z,25.05
2018-08-20T12:50:32.144Z,22.13
2018-08-20T12:51:37.425Z,20.45
2018-08-20T12:52:47.117Z,22.02
2018-08-20T12:53:52.682Z,19.45
2018-08-20T12:55:04.089Z,27.17
2018-08-20T12:56:22.207Z,26.17
2018-08-20T12:57:27.748Z,24.77
2018-08-20T12:58:32.390Z,25.27
2018-08-20T12:59:38.772Z,21.65
2018-08-20T13:00:44.660Z,20.02
2018-08-20T13:01:50.504Z,19.20
2018-08-20T13:02:56.402Z,16.82
2018-08-20T13:04:06.102Z,16.40
2018-08-20T13:05:10.814Z,21.82
2018-08-20T13:06:16.617Z,23.22
2018-08-20T13:07:25.255Z,20.17
2018-08-20T13:08:43.302Z,23.02
2018-08-20T13:10:15.988Z,18.60
2018-08-20T13:11:29.627Z,20.68
2018-08-20T13:12:41.201Z,18.27
2018-08-20T13:16:29.069Z,24.60
2018-08-20T13:19:29.568Z,19.55
2018-08-20T13:20:59.247Z,21.00
2018-08-20T13:22:07.581Z,19.98
2018-08-20T13:25:08.965Z,22.95
2018-08-20T13:26:14.623Z,17.48
2018-08-20T13:27:39.092Z,18.55
2018-08-20T13:28:54.853Z,22.98
2018-08-20T13:30:03.493Z,21.00
2018-08-20T13:31:15.094Z,21.95
2018-08-20T13:32:27.534Z,19.90
2018-08-20T13:33:34.661Z,18.10
2018-08-20T13:34:40.514Z,30.85
2018-08-20T13:35:53.646Z,21.48
2018-08-20T13:37:16.294Z,22.75
2018-08-20T13:38:24.716Z,23.02
2018-08-20T13:39:29.626Z,21.30
2018-08-20T13:40:34.515Z,24.82
2018-08-20T13:41:46.106Z,25.80
2018-08-20T13:42:52.083Z,19.70
2018-08-20T13:43:57.317Z,21.87
2018-08-20T13:45:04.973Z,20.70
2018-08-20T13:48:14.815Z,15.03
2018-08-20T13:49:47.602Z,14.90
2018-08-20T13:51:06.045Z,21.02
2018-08-20T13:54:07.511Z,20.55
2018-08-20T13:55:14.339Z,24.25
2018-08-20T13:59:07.588Z,19.27
2018-08-20T14:00:12.930Z,19.92
2018-08-20T14:01:21.990Z,20.95
2018-08-20T14:04:26.835Z,21.02
2018-08-20T14:05:35.354Z,15.80
2018-08-20T14:06:39.845Z,24.18
2018-08-20T14:07:44.772Z,21.65
2018-08-20T14:08:49.501Z,22.00
2018-08-20T14:09:54.383Z,21.73
2018-08-20T14:10:59.186Z,21.82
2018-08-20T14:12:18.196Z,21.42
2018-08-20T14:13:24.740Z,20.35
2018-08-20T14:14:39.972Z,26.55
2018-08-20T14:15:51.494Z,24.00
2018-08-20T14:17:17.082Z,15.60
2018-08-20T14:18:27.205Z,18.92
2018-08-20T14:19:40.086Z,20.62
2018-08-20T14:20:55.288Z,21.70
2018-08-20T14:24:08.281Z,28.42
2018-08-20T14:25:35.329Z,18.92
2018-08-20T14:26:41.107Z,23.73
2018-08-20T14:27:47.081Z,23.07
2018-08-20T14:28:52.561Z,16.87
2018-08-20T14:29:57.423Z,17.87
2018-08-20T14:31:14.392Z,18.32
2018-08-20T14:34:19.022Z,20.68
2018-08-20T14:35:35.911Z,45.58
2018-08-20T14:38:45.048Z,20.23
2018-08-20T14:39:50.221Z,19.52
2018-08-20T14:41:13.125Z,26.10
2018-08-20T14:42:17.901Z,21.48
2018-08-20T14:43:26.515Z,21.85
2018-08-20T14:44:35.376Z,18.05
2018-08-20T14:45:47.389Z,20.15
2018-08-20T14:46:54.057Z,18.02
2018-08-20T14:48:01.038Z,18.87
2018-08-20T14:49:14.652Z,20.23
2018-08-20T14:50:21.168Z,19.62
2018-08-20T14:51:30.720Z,15.53
2018-08-20T14:52:36.139Z,17.60
2018-08-20T14:53:43.464Z,17.52
2018-08-20T14:54:49.093Z,17.00
2018-08-20T14:56:33.721Z,19.95
2018-08-20T14:58:08.380Z,21.37
2018-08-20T14:59:27.061Z,16.67
2018-08-20T15:02:00.564Z,17.40
2018-08-20T15:03:09.231Z,20.65
2018-08-20T15:04:18.554Z,19.25
2018-08-20T15:05:23.274Z,21.07
2018-08-20T15:06:31.410Z,22.85
2018-08-20T15:07:39.534Z,19.85
2018-08-20T15:08:57.420Z,20.17
2018-08-20T15:10:10.100Z,16.05
2018-08-20T15:11:16.662Z,21.45
2018-08-20T15:12:22.808Z,17.87
2018-08-20T15:13:43.341Z,21.87
2018-08-20T15:14:48.670Z,21.52
2018-08-20T15:15:59.478Z,21.02
2018-08-20T15:17:06.881Z,23.90
2018-08-20T15:18:26.077Z,25.32
2018-08-20T15:19:35.090Z,26.40
2018-08-20T15:20:39.894Z,19.92
2018-08-20T15:21:46.201Z,23.07
2018-08-20T15:22:50.821Z,19.20
2018-08-20T15:23:56.319Z,21.10
2018-08-20T15:25:01.506Z,21.20
2018-08-20T15:26:08.088Z,21.80
2018-08-20T15:27:15.168Z,23.00
2018-08-20T15:28:23.237Z,22.67
2018-08-20T15:29:36.643Z,21.35
2018-08-20T15:30:48.772Z,22.02
2018-08-20T15:31:54.245Z,22.73
2018-08-20T15:32:59.903Z,22.35
2018-08-20T15:34:10.593Z,22.80
2018-08-20T15:35:18.251Z,24.72
2018-08-20T15:36:24.200Z,20.43
2018-08-20T15:37:29.260Z,22.00
2018-08-20T15:38:33.884Z,24.23
2018-08-20T15:39:39.921Z,28.17
2018-08-20T15:40:45.020Z,24.45
2018-08-20T15:41:52.217Z,26.62
2018-08-20T15:42:58.624Z,27.93
2018-08-20T15:44:11.105Z,25.55
2018-08-20T15:45:16.429Z,26.80
2018-08-20T15:46:25.186Z,32.70
2018-08-20T15:47:32.235Z,30.05
2018-08-20T15:48:40.800Z,35.05